Time;durP1;ratioP1;P1;durP2;ratioP2;P2;SDS_P1;SDS_P2;PMS_P1;PMS_P2;Temp;Humidity;BMP_temperature;BMP_pressure;BME280_temperature;BME280_humidity;BME280_pressure;Samples;Min_cycle;Max_cycle;Signal;HPM_P1;HPM_P2
2022/03/10 00:01:30;;;;;;;35.65;31.75;;;3.30;99.90;;;;;;4981147;28;20109;-76
2022/03/10 00:03:57;;;;;;;34.80;30.90;;;3.20;99.90;;;;;;4982148;28;20071;-75
2022/03/10 00:06:23;;;;;;;37.15;31.42;;;3.10;99.90;;;;;;4981463;28;20073;-78
2022/03/10 00:08:50;;;;;;;34.45;30.95;;;3.00;99.90;;;;;;4945464;28;20150;-77
2022/03/10 00:11:17;;;;;;;33.50;29.90;;;3.00;99.90;;;;;;4964240;28;20078;-76
2022/03/10 00:13:43;;;;;;;35.38;30.60;;;2.90;99.90;;;;;;4981377;28;20129;-77
2022/03/10 00:16:10;;;;;;;33.83;29.20;;;2.90;99.90;;;;;;4981689;28;20578;-77
2022/03/10 00:18:37;;;;;;;34.38;30.92;;;2.90;99.90;;;;;;4981580;28;20629;-76
2022/03/10 00:21:04;;;;;;;34.42;30.92;;;2.90;99.90;;;;;;4980686;28;20073;-77
2022/03/10 00:23:30;;;;;;;35.78;32.08;;;2.90;99.90;;;;;;4981919;28;20137;-75
2022/03/10 00:25:58;;;;;;;35.10;31.35;;;2.80;99.90;;;;;;4981849;28;20509;-76
2022/03/10 00:28:24;;;;;;;35.47;30.98;;;2.70;99.90;;;;;;4997694;28;20058;-77
2022/03/10 00:30:51;;;;;;;34.83;30.13;;;2.70;99.90;;;;;;4987905;28;20046;-75
2022/03/10 00:33:18;;;;;;;34.40;30.80;;;2.60;99.90;;;;;;4981447;28;20053;-77
2022/03/10 00:35:47;;;;;;;35.10;30.20;;;2.50;99.90;;;;;;4980119;28;20049;-75
2022/03/10 00:38:14;;;;;;;34.20;30.67;;;2.60;99.90;;;;;;4980328;28;20057;-76
2022/03/10 00:40:41;;;;;;;37.63;30.70;;;2.50;99.90;;;;;;4980397;28;20126;-74
2022/03/10 00:43:11;;;;;;;33.75;30.33;;;2.40;99.90;;;;;;4982164;28;20078;-77
2022/03/10 00:45:39;;;;;;;34.20;30.63;;;2.30;99.90;;;;;;4981730;28;20042;-76
2022/03/10 00:48:07;;;;;;;35.00;31.38;;;2.30;99.90;;;;;;4988752;28;20108;-75
2022/03/10 00:50:34;;;;;;;35.85;31.17;;;2.30;99.90;;;;;;4984946;28;20119;-75
2022/03/10 00:53:00;;;;;;;34.78;31.30;;;2.30;99.90;;;;;;4981513;28;20472;-77
2022/03/10 00:55:27;;;;;;;34.88;31.13;;;2.20;99.90;;;;;;4979859;28;20046;-75
2022/03/10 00:57:54;;;;;;;36.60;32.45;;;2.20;99.90;;;;;;4980379;28;20046;-77
2022/03/10 01:00:28;;;;;;;36.55;32.67;;;2.10;99.90;;;;;;4981122;28;20045;-74
2022/03/10 01:02:56;;;;;;;39.47;34.10;;;1.90;99.90;;;;;;4981713;28;20093;-75
2022/03/10 01:05:23;;;;;;;40.40;32.45;;;1.80;99.90;;;;;;4980388;28;20065;-76
2022/03/10 01:07:50;;;;;;;63.00;43.45;;;1.70;99.90;;;;;;4979753;28;20073;-77
2022/03/10 01:10:18;;;;;;;53.65;40.25;;;1.50;99.90;;;;;;4979809;28;20050;-74
2022/03/10 01:12:45;;;;;;;46.15;36.50;;;1.40;99.90;;;;;;4981887;28;20078;-75
2022/03/10 01:15:19;;;;;;;40.38;35.03;;;1.30;99.90;;;;;;4980325;28;20050;-75
2022/03/10 01:17:46;;;;;;;44.35;35.10;;;1.30;99.90;;;;;;5030004;23;20122;-72
2022/03/10 01:20:19;;;;;;;39.22;33.80;;;1.20;99.90;;;;;;5017643;28;20073;-70
2022/03/10 01:22:46;;;;;;;49.40;37.92;;;1.10;99.90;;;;;;5018195;28;20037;-72
2022/03/10 01:25:16;;;;;;;49.38;37.47;;;1.10;99.90;;;;;;5021905;28;20551;-72
2022/03/10 01:27:44;;;;;;;50.45;38.58;;;0.90;99.90;;;;;;5022795;28;20137;-74
2022/03/10 01:30:12;;;;;;;47.00;37.28;;;0.80;99.90;;;;;;5021434;28;20177;-72
2022/03/10 01:32:39;;;;;;;43.15;35.85;;;0.80;99.90;;;;;;5022464;28;20077;-72
2022/03/10 01:35:06;;;;;;;50.10;35.78;;;0.80;99.90;;;;;;5023749;28;20041;-72
2022/03/10 01:37:36;;;;;;;41.90;35.45;;;0.60;99.90;;;;;;5024443;28;20045;-73
2022/03/10 01:40:09;;;;;;;40.95;33.72;;;0.50;99.90;;;;;;5020446;28;20093;-70
2022/03/10 01:42:36;;;;;;;41.38;33.53;;;0.50;99.90;;;;;;5023065;28;20804;-69
2022/03/10 01:45:04;;;;;;;40.58;34.40;;;0.40;99.90;;;;;;5022823;28;20115;-71
2022/03/10 01:47:30;;;;;;;42.25;33.97;;;0.30;99.90;;;;;;5022961;28;20313;-69
2022/03/10 01:49:57;;;;;;;38.13;34.03;;;0.30;99.90;;;;;;5031933;28;20053;-71
2022/03/10 01:52:24;;;;;;;45.05;34.28;;;0.20;99.90;;;;;;5022403;28;20263;-71
2022/03/10 01:54:52;;;;;;;44.22;35.13;;;0.20;99.90;;;;;;5021100;28;20543;-71
2022/03/10 01:57:19;;;;;;;40.20;34.08;;;0.10;99.90;;;;;;5021189;28;20072;-71
2022/03/10 01:59:46;;;;;;;62.63;34.72;;;0.00;99.90;;;;;;5022579;28;20148;-71
2022/03/10 02:02:13;;;;;;;45.60;33.83;;;-0.10;99.90;;;;;;5021502;28;20162;-71
2022/03/10 02:04:40;;;;;;;39.85;32.08;;;-0.10;99.90;;;;;;5023035;28;20158;-71
2022/03/10 02:10:16;;;;;;;39.55;31.77;;;-0.20;99.90;;;;;;5004267;28;20486;-72
2022/03/10 02:10:16;;;;;;;38.72;32.80;;;-0.20;99.90;;;;;;5014550;28;20080;-72
2022/03/10 02:12:49;;;;;;;44.95;33.33;;;-0.20;99.90;;;;;;5016308;28;20337;-71
2022/03/10 02:18:05;;;;;;;40.13;30.27;;;-0.30;99.90;;;;;;5025629;28;20072;-72
2022/03/10 02:20:34;;;;;;;37.42;31.90;;;-0.30;99.90;;;;;;5022753;28;20427;-74
2022/03/10 02:23:01;;;;;;;33.67;30.13;;;-0.30;99.90;;;;;;5022270;28;20050;-71
2022/03/10 02:25:28;;;;;;;44.33;32.72;;;-0.30;99.90;;;;;;5024318;28;20276;-71
2022/03/10 02:27:56;;;;;;;38.58;32.00;;;-0.40;99.90;;;;;;5021689;28;20144;-71
2022/03/10 02:30:25;;;;;;;43.92;32.80;;;-0.40;99.90;;;;;;5021307;28;20057;-71
2022/03/10 02:32:51;;;;;;;42.25;32.80;;;-0.40;99.90;;;;;;5019477;28;20148;-71
2022/03/10 02:35:18;;;;;;;41.78;31.67;;;-0.40;99.90;;;;;;5019866;28;20553;-71
2022/03/10 02:37:46;;;;;;;37.97;30.50;;;-0.50;99.90;;;;;;5021295;28;20053;-70
2022/03/10 02:40:13;;;;;;;38.58;32.40;;;-0.50;99.90;;;;;;5020066;28;20099;-71
2022/03/10 02:42:41;;;;;;;38.80;30.45;;;-0.60;99.90;;;;;;5021460;28;20069;-70
2022/03/10 02:45:09;;;;;;;42.25;30.38;;;-0.60;99.90;;;;;;5021742;28;20180;-71
2022/03/10 02:47:36;;;;;;;44.03;31.90;;;-0.60;99.90;;;;;;5022848;28;20503;-71
2022/03/10 02:50:06;;;;;;;40.00;30.52;;;-0.60;99.90;;;;;;5023420;28;20081;-71
2022/03/10 02:52:35;;;;;;;44.45;32.30;;;-0.70;99.90;;;;;;5021426;28;20283;-71
2022/03/10 02:55:06;;;;;;;41.47;31.80;;;-0.80;99.90;;;;;;5020315;28;20053;-71
2022/03/10 02:57:34;;;;;;;39.25;30.35;;;-0.80;99.90;;;;;;5021746;28;20148;-70
2022/03/10 03:00:01;;;;;;;39.53;31.90;;;-0.60;99.90;;;;;;5020327;28;20048;-71
2022/03/10 03:02:27;;;;;;;44.97;32.20;;;-0.70;99.90;;;;;;5019237;28;20311;-71
2022/03/10 03:04:54;;;;;;;39.58;28.98;;;-0.80;99.90;;;;;;5020706;28;20158;-71
2022/03/10 03:07:21;;;;;;;42.17;28.58;;;-0.60;99.90;;;;;;5019496;28;20045;-73
2022/03/10 03:09:48;;;;;;;36.40;29.52;;;-0.60;99.90;;;;;;5021640;28;20049;-72
2022/03/10 03:12:16;;;;;;;36.45;29.02;;;-0.70;99.90;;;;;;5020504;28;20065;-71
2022/03/10 03:14:43;;;;;;;36.80;30.20;;;-0.70;99.90;;;;;;5019636;28;20052;-70
2022/03/10 03:17:10;;;;;;;35.00;28.95;;;-0.80;99.90;;;;;;5021031;28;20061;-71
2022/03/10 03:19:37;;;;;;;39.38;31.98;;;-0.70;99.90;;;;;;5021241;28;20049;-71
2022/03/10 03:22:04;;;;;;;42.78;31.65;;;-0.80;99.90;;;;;;5018594;28;20120;-71
2022/03/10 03:24:31;;;;;;;40.22;30.85;;;-0.90;99.90;;;;;;5002007;28;20050;-72
2022/03/10 03:26:58;;;;;;;42.28;30.55;;;-0.90;99.90;;;;;;5019337;28;20724;-70
2022/03/10 03:29:25;;;;;;;45.17;31.67;;;-1.00;99.90;;;;;;5020442;28;20423;-71
2022/03/10 03:31:52;;;;;;;37.42;29.77;;;-1.00;99.90;;;;;;5017433;28;20076;-70
2022/03/10 03:34:19;;;;;;;42.92;31.67;;;-1.00;99.90;;;;;;5018968;28;20053;-71
2022/03/10 03:36:46;;;;;;;38.95;30.13;;;-1.10;99.90;;;;;;5018562;28;20073;-71
2022/03/10 03:39:13;;;;;;;42.90;31.90;;;-1.10;99.90;;;;;;5020982;28;20414;-71
2022/03/10 03:41:40;;;;;;;43.28;30.23;;;-1.20;99.90;;;;;;5019805;28;20151;-72
2022/03/10 03:44:08;;;;;;;54.00;31.63;;;-1.20;99.90;;;;;;5019810;28;20057;-70
2022/03/10 03:46:36;;;;;;;39.80;29.42;;;-1.20;99.90;;;;;;5017946;28;20045;-70
2022/03/10 03:49:07;;;;;;;39.75;30.25;;;-1.20;99.90;;;;;;5032134;28;20056;-71
2022/03/10 03:51:34;;;;;;;45.90;31.90;;;-1.20;99.90;;;;;;5017854;28;20149;-70
2022/03/10 03:54:01;;;;;;;43.55;29.75;;;-1.30;99.90;;;;;;5018850;28;20571;-71
2022/03/10 03:56:28;;;;;;;43.67;32.03;;;-1.20;99.90;;;;;;5019097;28;20703;-70
2022/03/10 03:58:55;;;;;;;38.20;30.95;;;-1.30;99.90;;;;;;5019332;28;20122;-70
2022/03/10 04:01:21;;;;;;;42.42;32.65;;;-1.30;99.90;;;;;;5001354;28;20646;-71
2022/03/10 04:03:48;;;;;;;48.78;32.95;;;-1.20;99.90;;;;;;5020753;28;20049;-73
2022/03/10 04:06:16;;;;;;;39.78;30.60;;;-1.20;99.90;;;;;;5018904;28;20451;-72
2022/03/10 04:08:43;;;;;;;43.97;31.38;;;-1.10;99.90;;;;;;5016986;28;20057;-70
2022/03/10 04:11:10;;;;;;;40.95;30.42;;;-1.00;99.90;;;;;;5000508;28;20061;-71
2022/03/10 04:13:37;;;;;;;44.72;30.95;;;-0.90;99.90;;;;;;5020047;28;20100;-70
2022/03/10 04:16:04;;;;;;;41.28;31.25;;;-1.00;99.90;;;;;;5020042;28;20064;-71
2022/03/10 04:18:35;;;;;;;47.78;29.00;;;-1.00;99.90;;;;;;5020428;28;20502;-71
2022/03/10 04:21:02;;;;;;;41.35;29.77;;;-0.90;99.90;;;;;;5016940;28;20264;-71
2022/03/10 04:23:29;;;;;;;38.47;28.63;;;-0.90;99.90;;;;;;5020392;28;20111;-71
2022/03/10 04:25:56;;;;;;;37.75;28.90;;;-0.70;99.90;;;;;;5019829;28;20482;-71
2022/03/10 04:28:23;;;;;;;42.13;29.73;;;-0.60;99.90;;;;;;5018710;28;20172;-71
2022/03/10 04:30:50;;;;;;;38.25;29.40;;;-0.70;99.90;;;;;;5018428;28;20046;-71
2022/03/10 04:33:17;;;;;;;38.75;29.30;;;-0.70;99.90;;;;;;5021145;28;20069;-71
2022/03/10 04:35:44;;;;;;;39.65;31.02;;;-0.80;99.90;;;;;;5020007;28;20063;-70
2022/03/10 04:38:11;;;;;;;43.30;29.30;;;-0.90;99.90;;;;;;5020714;28;20049;-71
2022/03/10 04:40:37;;;;;;;38.88;29.02;;;-1.00;99.90;;;;;;5020187;28;20132;-70
2022/03/10 04:43:04;;;;;;;39.97;30.45;;;-1.10;99.90;;;;;;5018925;28;20540;-71
2022/03/10 04:45:31;;;;;;;39.03;29.10;;;-1.10;99.90;;;;;;5020286;28;20045;-70
2022/03/10 04:47:58;;;;;;;40.50;29.02;;;-1.20;99.90;;;;;;5025098;28;20554;-71
2022/03/10 04:50:25;;;;;;;42.67;30.30;;;-1.20;99.90;;;;;;5025004;28;20057;-71
2022/03/10 04:52:52;;;;;;;36.78;29.75;;;-1.10;99.90;;;;;;5018717;28;20276;-71
2022/03/10 04:55:19;;;;;;;34.13;27.00;;;-0.80;99.90;;;;;;5000278;28;20145;-71
2022/03/10 04:57:50;;;;;;;34.10;27.13;;;-0.60;99.90;;;;;;5010451;28;20046;-70
2022/03/10 05:00:18;;;;;;;36.15;29.67;;;-0.50;99.90;;;;;;5022176;28;20073;-72
2022/03/10 05:02:49;;;;;;;35.72;29.15;;;-0.50;99.90;;;;;;5022354;28;20496;-71
2022/03/10 05:05:18;;;;;;;31.63;28.23;;;-0.30;99.90;;;;;;5022070;28;20080;-71
2022/03/10 05:07:45;;;;;;;35.15;29.27;;;-0.10;99.90;;;;;;5021506;28;20293;-70
2022/03/10 05:10:13;;;;;;;38.90;31.42;;;-0.10;99.90;;;;;;5023293;28;20188;-71
2022/03/10 05:12:49;;;;;;;34.72;29.33;;;0.00;99.90;;;;;;5023534;28;20435;-71
2022/03/10 05:15:18;;;;;;;32.42;29.15;;;0.10;99.90;;;;;;5022234;28;20045;-71
2022/03/10 05:17:44;;;;;;;33.92;28.48;;;0.20;99.90;;;;;;5021714;28;20149;-71
2022/03/10 05:20:11;;;;;;;33.45;28.77;;;0.40;99.90;;;;;;5022858;28;20087;-70
2022/03/10 05:22:46;;;;;;;33.63;30.13;;;0.30;99.90;;;;;;5023235;28;20132;-71
2022/03/10 05:25:14;;;;;;;39.97;31.40;;;0.20;99.90;;;;;;5023069;28;20045;-70
2022/03/10 05:27:42;;;;;;;34.78;30.80;;;0.30;99.90;;;;;;5023025;28;20065;-70
2022/03/10 05:30:10;;;;;;;36.40;31.00;;;0.20;99.90;;;;;;5022520;28;20089;-71
2022/03/10 05:32:38;;;;;;;32.63;29.05;;;0.20;99.90;;;;;;5021669;28;20054;-71
2022/03/10 05:35:06;;;;;;;44.70;34.22;;;0.20;99.90;;;;;;5021653;28;20045;-71
2022/03/10 05:37:36;;;;;;;41.95;34.17;;;0.20;99.90;;;;;;5023060;28;20058;-71
2022/03/10 05:40:06;;;;;;;41.58;33.05;;;0.20;99.90;;;;;;5022243;28;20118;-71
2022/03/10 05:42:32;;;;;;;44.80;34.13;;;0.20;99.90;;;;;;5024985;28;20073;-71
2022/03/10 05:44:59;;;;;;;32.22;28.42;;;0.40;99.90;;;;;;5023889;28;20037;-71
2022/03/10 05:47:27;;;;;;;30.58;27.38;;;0.60;99.90;;;;;;5022725;28;20106;-71
2022/03/10 05:49:53;;;;;;;31.67;28.48;;;0.80;99.90;;;;;;5021936;28;20095;-71
2022/03/10 05:52:20;;;;;;;38.30;34.17;;;1.00;99.90;;;;;;5022312;28;20076;-72
2022/03/10 05:54:50;;;;;;;31.70;28.23;;;1.10;99.90;;;;;;5023291;28;20485;-70
2022/03/10 05:57:17;;;;;;;32.03;28.85;;;1.20;99.90;;;;;;5022342;28;20049;-71
2022/03/10 05:59:46;;;;;;;32.72;29.42;;;1.30;99.90;;;;;;5021995;28;20076;-71
2022/03/10 06:02:14;;;;;;;31.13;28.02;;;1.30;99.90;;;;;;5021364;28;20055;-71
2022/03/10 06:04:42;;;;;;;47.50;34.80;;;1.30;99.90;;;;;;5002183;28;20061;-71
2022/03/10 06:07:08;;;;;;;37.00;33.30;;;1.30;99.90;;;;;;5000660;28;20119;-72
2022/03/10 06:09:35;;;;;;;36.25;32.60;;;1.30;99.90;;;;;;5005188;28;20038;-71
2022/03/10 06:12:02;;;;;;;36.67;33.15;;;1.30;99.90;;;;;;5021853;28;20740;-72
2022/03/10 06:14:29;;;;;;;37.10;33.15;;;1.30;99.90;;;;;;5022109;28;20077;-71
2022/03/10 06:16:56;;;;;;;37.47;33.83;;;1.30;99.90;;;;;;5005999;28;20597;-71
2022/03/10 06:19:23;;;;;;;36.28;32.70;;;1.30;99.90;;;;;;5007315;28;20076;-72
2022/03/10 06:21:51;;;;;;;37.72;34.00;;;1.30;99.90;;;;;;5020853;28;20424;-71
2022/03/10 06:24:18;;;;;;;37.22;33.65;;;1.30;99.90;;;;;;5021752;28;20053;-71
2022/03/10 06:26:44;;;;;;;35.35;32.13;;;1.40;99.90;;;;;;5021958;28;20084;-71
2022/03/10 06:29:13;;;;;;;35.38;32.13;;;1.50;99.90;;;;;;5020552;28;20057;-71
2022/03/10 06:31:40;;;;;;;34.72;31.27;;;1.60;99.90;;;;;;5018344;28;20049;-71
2022/03/10 06:34:10;;;;;;;34.55;31.27;;;1.70;99.90;;;;;;5022852;28;20151;-71
2022/03/10 06:36:36;;;;;;;34.50;31.38;;;1.90;99.90;;;;;;5019722;28;20073;-72
2022/03/10 06:39:03;;;;;;;33.83;30.98;;;2.10;99.90;;;;;;5020170;28;20546;-71
2022/03/10 06:41:30;;;;;;;33.97;30.77;;;2.20;99.90;;;;;;5017003;28;20088;-71
2022/03/10 06:43:57;;;;;;;34.83;31.30;;;2.40;99.90;;;;;;5020087;28;20073;-71
2022/03/10 06:46:24;;;;;;;34.10;30.70;;;2.40;99.90;;;;;;5020936;28;20041;-71
2022/03/10 06:48:51;;;;;;;35.80;32.28;;;2.40;99.90;;;;;;5029247;28;20589;-71
2022/03/10 06:51:17;;;;;;;33.83;30.73;;;2.50;99.90;;;;;;5018488;28;20072;-70
2022/03/10 06:53:44;;;;;;;33.65;30.58;;;2.60;99.90;;;;;;5021472;28;20625;-70
2022/03/10 06:56:11;;;;;;;33.75;30.70;;;2.70;99.90;;;;;;5019642;28;20076;-71
2022/03/10 06:58:40;;;;;;;33.25;30.15;;;2.90;99.90;;;;;;5018672;28;20073;-70
2022/03/10 07:01:06;;;;;;;31.58;28.58;;;3.00;99.90;;;;;;5015896;28;20053;-70
2022/03/10 07:03:33;;;;;;;32.15;29.30;;;3.20;99.90;;;;;;5019314;28;20109;-71
2022/03/10 07:06:01;;;;;;;33.67;30.35;;;3.40;99.90;;;;;;5017190;28;20041;-71
2022/03/10 07:08:27;;;;;;;33.08;29.88;;;3.50;99.90;;;;;;5014907;28;20045;-72
2022/03/10 07:10:54;;;;;;;33.33;30.13;;;3.60;99.90;;;;;;5019552;28;20133;-71
2022/03/10 07:13:21;;;;;;;36.50;31.90;;;3.60;99.90;;;;;;5019013;28;20077;-71
2022/03/10 07:15:53;;;;;;;33.47;30.48;;;3.70;99.90;;;;;;5017869;28;20053;-71
2022/03/10 07:18:20;;;;;;;34.58;31.65;;;3.80;99.90;;;;;;5034046;23;20045;-72
2022/03/10 07:20:48;;;;;;;34.72;31.40;;;3.90;99.90;;;;;;4989737;28;20116;-73
2022/03/10 07:23:15;;;;;;;36.42;33.33;;;4.10;99.90;;;;;;4998921;28;20054;-72
2022/03/10 07:25:43;;;;;;;37.55;34.42;;;4.20;99.90;;;;;;4999994;28;20068;-72
2022/03/10 07:28:10;;;;;;;38.35;35.33;;;4.30;99.90;;;;;;5001635;28;20045;-72
2022/03/10 07:30:37;;;;;;;37.65;34.42;;;4.50;99.90;;;;;;4987260;28;20516;-72
2022/03/10 07:33:04;;;;;;;37.08;34.47;;;4.60;99.90;;;;;;4978897;28;20046;-72
2022/03/10 07:35:30;;;;;;;39.30;36.05;;;4.70;99.90;;;;;;4984447;28;20050;-72
2022/03/10 07:37:59;;;;;;;38.00;34.92;;;4.80;99.90;;;;;;4981897;28;20269;-72
2022/03/10 07:40:26;;;;;;;38.20;35.10;;;4.90;99.90;;;;;;4979713;28;20054;-72
2022/03/10 07:42:53;;;;;;;38.83;35.25;;;5.00;99.90;;;;;;4981931;28;20137;-71
2022/03/10 07:45:19;;;;;;;38.63;35.55;;;5.00;99.90;;;;;;4991983;28;20363;-72
2022/03/10 07:47:46;;;;;;;39.33;36.08;;;5.20;99.90;;;;;;5001395;28;20547;-73
2022/03/10 07:50:13;;;;;;;36.40;33.22;;;5.30;99.90;;;;;;4989522;28;20081;-72
2022/03/10 07:52:41;;;;;;;40.47;36.70;;;5.40;99.90;;;;;;4957453;28;20077;-71
2022/03/10 07:55:08;;;;;;;38.30;34.97;;;5.50;99.90;;;;;;4986425;28;20066;-73
2022/03/10 07:57:36;;;;;;;39.33;36.28;;;5.60;99.90;;;;;;5001329;28;20042;-72
2022/03/10 08:00:05;;;;;;;40.08;36.92;;;5.60;99.90;;;;;;4993501;28;20049;-72
2022/03/10 08:02:35;;;;;;;42.33;38.50;;;5.70;99.90;;;;;;4981287;28;20152;-73
2022/03/10 08:05:03;;;;;;;38.90;35.88;;;5.70;99.90;;;;;;4985509;28;20583;-73
2022/03/10 08:07:34;;;;;;;38.55;35.33;;;5.80;99.90;;;;;;4994594;28;20378;-72
2022/03/10 08:10:03;;;;;;;40.90;37.80;;;6.00;99.90;;;;;;4981622;28;20062;-72
2022/03/10 08:12:31;;;;;;;39.40;36.45;;;6.20;99.90;;;;;;4980307;28;20548;-73
2022/03/10 08:14:58;;;;;;;42.25;39.10;;;6.40;99.90;;;;;;4995431;28;20164;-73
2022/03/10 08:17:26;;;;;;;40.88;37.97;;;6.60;99.90;;;;;;5000557;28;20053;-72
2022/03/10 08:19:53;;;;;;;41.53;38.22;;;6.80;99.90;;;;;;4992002;28;20220;-72
2022/03/10 08:22:21;;;;;;;41.78;38.42;;;6.90;99.90;;;;;;4980626;28;20381;-73
2022/03/10 08:24:48;;;;;;;42.20;39.05;;;7.30;99.90;;;;;;4987847;28;20045;-72
2022/03/10 08:27:15;;;;;;;40.35;37.45;;;7.60;99.90;;;;;;4979195;28;20227;-71
2022/03/10 08:29:45;;;;;;;42.13;38.67;;;7.80;99.90;;;;;;4977041;28;20042;-73
2022/03/10 08:32:13;;;;;;;44.22;41.08;;;8.00;99.90;;;;;;4976794;28;20276;-74
2022/03/10 08:34:40;;;;;;;46.30;42.95;;;7.90;99.90;;;;;;4981151;28;20071;-75
2022/03/10 08:37:07;;;;;;;47.17;43.80;;;8.10;99.90;;;;;;4980785;28;20141;-75
2022/03/10 08:39:34;;;;;;;48.78;44.97;;;8.20;99.90;;;;;;4981409;28;20120;-77
2022/03/10 08:42:01;;;;;;;51.03;47.38;;;8.50;99.90;;;;;;4980950;28;20104;-76
2022/03/10 08:44:27;;;;;;;48.67;45.28;;;8.70;99.90;;;;;;4980900;28;20647;-76
2022/03/10 08:46:55;;;;;;;48.40;45.00;;;8.80;99.90;;;;;;4979621;28;20046;-75
2022/03/10 08:49:22;;;;;;;49.17;45.78;;;8.80;99.90;;;;;;4979853;28;20046;-75
2022/03/10 08:51:50;;;;;;;48.35;45.00;;;8.70;99.90;;;;;;4978912;28;20122;-75
2022/03/10 08:54:19;;;;;;;47.17;43.97;;;8.80;99.90;;;;;;4979775;28;20061;-76
2022/03/10 08:56:46;;;;;;;46.92;43.63;;;8.70;99.90;;;;;;4981397;28;20104;-76
2022/03/10 08:59:13;;;;;;;45.90;42.28;;;8.90;99.90;;;;;;4981136;28;20117;-76
2022/03/10 09:01:40;;;;;;;47.05;43.65;;;9.00;99.90;;;;;;4980583;28;20073;-75
2022/03/10 09:04:08;;;;;;;44.38;41.30;;;9.20;99.90;;;;;;4978972;28;20068;-76
2022/03/10 09:06:35;;;;;;;43.60;40.40;;;9.30;99.90;;;;;;4980385;28;20054;-75
2022/03/10 09:09:03;;;;;;;47.13;43.47;;;9.40;99.90;;;;;;4981359;28;20065;-76
2022/03/10 09:11:30;;;;;;;45.30;41.83;;;9.50;99.90;;;;;;4979813;28;20501;-76
2022/03/10 09:13:57;;;;;;;42.58;39.50;;;9.70;99.90;;;;;;4980778;28;20484;-76
2022/03/10 09:16:26;;;;;;;43.22;39.90;;;9.60;99.90;;;;;;4976703;28;20472;-76
2022/03/10 09:18:53;;;;;;;43.55;40.45;;;9.60;99.90;;;;;;4949239;28;20061;-76
2022/03/10 09:21:20;;;;;;;41.88;39.03;;;9.90;99.90;;;;;;4978144;28;20145;-76
2022/03/10 09:23:47;;;;;;;47.08;43.38;;;9.80;99.90;;;;;;4978414;28;20448;-75
2022/03/10 09:26:15;;;;;;;44.53;41.35;;;9.90;99.90;;;;;;4993006;28;20065;-76
2022/03/10 09:28:43;;;;;;;45.95;42.67;;;9.90;99.90;;;;;;4979406;28;20132;-75
2022/03/10 09:31:18;;;;;;;47.13;43.80;;;10.00;99.90;;;;;;4976561;28;20524;-75
2022/03/10 09:33:45;;;;;;;45.92;42.80;;;10.20;99.90;;;;;;4978346;28;20071;-75
2022/03/10 09:36:14;;;;;;;47.25;43.90;;;10.60;99.90;;;;;;4960849;28;20278;-75
2022/03/10 09:38:41;;;;;;;46.13;42.75;;;10.70;99.90;;;;;;4977481;28;20057;-73
2022/03/10 09:41:08;;;;;;;48.75;45.40;;;10.80;99.90;;;;;;4976863;28;20372;-76
2022/03/10 09:43:35;;;;;;;46.95;43.78;;;10.90;99.90;;;;;;4978771;28;20108;-75
2022/03/10 09:46:01;;;;;;;47.92;44.88;;;10.90;99.90;;;;;;4979847;28;20070;-75
2022/03/10 09:48:28;;;;;;;48.67;45.28;;;10.90;99.90;;;;;;4979656;28;20038;-75
2022/03/10 09:50:55;;;;;;;49.15;45.85;;;10.50;99.90;;;;;;4977748;28;20571;-75
2022/03/10 09:53:26;;;;;;;48.17;44.92;;;10.50;99.90;;;;;;4952591;28;20086;-76
2022/03/10 09:55:54;;;;;;;47.22;43.88;;;10.70;99.90;;;;;;4978850;28;20127;-75
2022/03/10 09:58:21;;;;;;;45.85;42.83;;;10.60;99.90;;;;;;4978156;28;20115;-75
2022/03/10 10:00:48;;;;;;;44.30;40.70;;;10.50;99.90;;;;;;4981518;28;20105;-76
2022/03/10 10:03:15;;;;;;;41.90;38.90;;;10.30;99.90;;;;;;4979744;28;20086;-76
2022/03/10 10:05:42;;;;;;;41.00;37.83;;;10.50;99.90;;;;;;4979293;28;20050;-75
2022/03/10 10:08:17;;;;;;;40.03;37.00;;;10.40;99.90;;;;;;4978024;28;20141;-76
2022/03/10 10:10:49;;;;;;;39.00;35.85;;;10.40;99.90;;;;;;4976631;28;20275;-76
2022/03/10 10:13:29;;;;;;;40.55;37.38;;;10.30;99.90;;;;;;4978812;28;20053;-76
2022/03/10 10:16:00;;;;;;;38.83;35.50;;;10.60;99.90;;;;;;4979019;28;20050;-77
2022/03/10 10:18:29;;;;;;;46.83;43.70;;;10.90;99.90;;;;;;4978503;28;20050;-76
2022/03/10 10:21:12;;;;;;;48.47;45.10;;;11.10;99.90;;;;;;4976697;28;20042;-76
2022/03/10 10:23:40;;;;;;;51.17;47.65;;;11.10;99.90;;;;;;4979175;28;20049;-76
2022/03/10 10:26:12;;;;;;;49.83;46.17;;;11.50;99.90;;;;;;4976930;28;20108;-76
2022/03/10 10:28:49;;;;;;;50.35;47.10;;;11.50;99.90;;;;;;4979042;28;20042;-76
2022/03/10 10:31:16;;;;;;;53.25;49.60;;;11.70;99.90;;;;;;4977012;28;20113;-76
2022/03/10 10:33:58;;;;;;;50.20;46.58;;;11.80;99.90;;;;;;4975294;28;20129;-76
2022/03/10 10:36:28;;;;;;;49.50;45.97;;;12.10;99.70;;;;;;4976910;28;20572;-76
2022/03/10 10:38:57;;;;;;;52.25;48.63;;;11.60;99.90;;;;;;4978727;28;20551;-76
2022/03/10 10:41:29;;;;;;;50.72;47.17;;;11.80;99.90;;;;;;5008750;28;20093;-76
2022/03/10 10:43:59;;;;;;;53.78;50.17;;;11.80;99.80;;;;;;4978288;28;20409;-76
2022/03/10 10:46:29;;;;;;;52.53;48.92;;;11.50;99.90;;;;;;4977290;28;20513;-75
2022/03/10 10:48:58;;;;;;;50.65;47.38;;;11.50;99.90;;;;;;4979220;28;20073;-76
2022/03/10 10:51:26;;;;;;;52.38;48.53;;;11.60;99.30;;;;;;4976356;28;20064;-76
2022/03/10 10:53:54;;;;;;;49.78;46.58;;;11.60;99.50;;;;;;4977182;28;20293;-76
2022/03/10 10:56:20;;;;;;;54.92;51.08;;;11.50;99.90;;;;;;4976892;28;20089;-76
2022/03/10 10:58:47;;;;;;;53.78;50.17;;;11.40;99.90;;;;;;4973752;28;20040;-75
2022/03/10 11:01:31;;;;;;;50.60;47.10;;;11.70;99.40;;;;;;4976345;28;20729;-73
2022/03/10 11:03:59;;;;;;;51.97;48.05;;;11.90;99.70;;;;;;4978145;28;20061;-73
2022/03/10 11:06:26;;;;;;;52.28;48.58;;;11.90;99.30;;;;;;4977401;28;20234;-74
2022/03/10 11:08:54;;;;;;;51.67;48.28;;;11.90;99.10;;;;;;4976117;28;20485;-73
2022/03/10 11:11:21;;;;;;;51.88;48.17;;;11.90;99.00;;;;;;4972634;28;20053;-74
2022/03/10 11:13:48;;;;;;;52.17;48.55;;;12.20;99.60;;;;;;4978569;28;20778;-72
2022/03/10 11:16:17;;;;;;;51.75;48.22;;;12.70;98.80;;;;;;4976402;28;20061;-73
2022/03/10 11:18:51;;;;;;;55.42;51.35;;;13.00;98.70;;;;;;4975742;28;20050;-74
2022/03/10 11:21:32;;;;;;;53.17;49.10;;;12.80;97.90;;;;;;4977554;28;20051;-74
2022/03/10 11:24:37;;;;;;;53.72;50.00;;;12.60;97.80;;;;;;4977907;28;20104;-74
2022/03/10 11:27:10;;;;;;;52.88;48.85;;;12.50;98.30;;;;;;4977741;28;20051;-73
2022/03/10 11:29:39;;;;;;;49.75;46.10;;;12.70;98.40;;;;;;4977723;28;20050;-73
2022/03/10 11:32:09;;;;;;;49.70;46.05;;;13.00;98.60;;;;;;4975923;28;20547;-74
2022/03/10 11:34:53;;;;;;;50.88;47.33;;;13.10;97.60;;;;;;4962079;28;20081;-72
2022/03/10 11:37:42;;;;;;;47.58;44.22;;;12.60;97.70;;;;;;4976635;28;20110;-72
2022/03/10 11:40:13;;;;;;;52.72;48.85;;;12.50;98.00;;;;;;4977532;28;20339;-73
2022/03/10 11:42:41;;;;;;;52.28;48.53;;;12.70;98.00;;;;;;4978125;28;20054;-72
2022/03/10 11:45:21;;;;;;;51.72;48.05;;;13.10;98.00;;;;;;4976487;28;20512;-72
2022/03/10 11:47:48;;;;;;;51.38;47.67;;;12.90;97.80;;;;;;4976318;28;20251;-73
2022/03/10 11:50:22;;;;;;;54.03;49.78;;;12.90;97.70;;;;;;4974348;28;20116;-73
2022/03/10 11:53:04;;;;;;;49.30;45.78;;;13.10;98.00;;;;;;4991486;28;20046;-73
2022/03/10 11:55:45;;;;;;;49.13;45.63;;;13.40;97.70;;;;;;4975738;28;20104;-73
2022/03/10 11:58:14;;;;;;;52.70;49.10;;;13.50;97.00;;;;;;5007947;28;20084;-73
2022/03/10 12:01:27;;;;;;;54.70;50.72;;;13.70;97.30;;;;;;5029433;28;20823;-74
2022/03/10 12:03:53;;;;;;;52.42;48.58;;;14.00;97.80;;;;;;5000185;28;20124;-74
2022/03/10 12:06:29;;;;;;;54.97;51.13;;;14.10;96.80;;;;;;5002990;28;20073;-74
2022/03/10 12:09:04;;;;;;;55.65;51.40;;;13.80;95.30;;;;;;4998750;28;20465;-74
2022/03/10 12:11:51;;;;;;;54.72;51.00;;;13.60;95.30;;;;;;5000431;28;20042;-74
2022/03/10 12:14:26;;;;;;;53.15;49.25;;;13.50;95.30;;;;;;5002368;28;20319;-74
2022/03/10 12:16:53;;;;;;;48.58;45.33;;;13.40;95.10;;;;;;4996049;28;20038;-74
2022/03/10 12:19:58;;;;;;;53.47;49.90;;;13.20;95.50;;;;;;5007221;28;20037;-74
2022/03/10 12:22:28;;;;;;;52.63;49.03;;;13.30;96.40;;;;;;5006893;28;20111;-74
2022/03/10 12:25:18;;;;;;;50.90;47.22;;;13.20;96.00;;;;;;5003919;28;20255;-74
2022/03/10 12:27:53;;;;;;;52.90;49.28;;;13.30;96.20;;;;;;5000497;28;20046;-72
2022/03/10 12:30:24;;;;;;;50.67;47.13;;;13.50;95.30;;;;;;4995788;28;20052;-72
2022/03/10 12:32:53;;;;;;;53.05;49.45;;;13.60;95.70;;;;;;4999132;28;20042;-72
2022/03/10 12:35:30;;;;;;;50.47;46.42;;;13.60;95.50;;;;;;5001700;28;20048;-72
2022/03/10 12:37:58;;;;;;;41.88;38.67;;;13.70;96.90;;;;;;5001184;28;20420;-73
2022/03/10 12:40:27;;;;;;;39.00;35.90;;;13.70;96.10;;;;;;4997750;28;20599;-73
2022/03/10 12:43:08;;;;;;;41.53;38.05;;;13.60;96.90;;;;;;4996418;28;20042;-75